Time;durP1;ratioP1;P1;durP2;ratioP2;P2;SDS_P1;SDS_P2;PMS_P1;PMS_P2;Temp;Humidity;BMP_temperature;BMP_pressure;BME280_temperature;BME280_humidity;BME280_pressure;Samples;Min_cycle;Max_cycle;Signal;HPM_P1;HPM_P2
2022/02/03 00:00:31;;;;;;;4.60;4.20;;;;;;;;;;5046053;28;20278;-65
2022/02/03 00:03:12;;;;;;;5.20;4.70;;;;;;;;;;5039403;28;20268;-65
2022/02/03 00:06:07;;;;;;;4.90;4.50;;;;;;;;;;5042248;28;20675;-65
2022/02/03 00:24:20;;;;;;;4.63;4.23;;;;;;;;;;5000175;28;20199;-65
2022/02/03 00:26:31;;;;;;;4.93;4.23;;;;;;;;;;5038010;28;20210;-65
2022/02/03 00:29:21;;;;;;;4.77;4.37;;;;;;;;;;5055111;28;20201;-66
2022/02/03 00:32:27;;;;;;;4.43;4.03;;;;;;;;;;5029591;28;20202;-65
2022/02/03 00:38:15;;;;;;;4.57;4.17;;;;;;;;;;5039110;28;20218;-65
2022/02/03 00:48:19;;;;;;;4.80;4.40;;;;;;;;;;5046603;28;20631;-65
2022/02/03 00:50:22;;;;;;;4.40;4.10;;;;;;;;;;5046047;28;20206;-65
2022/02/03 00:52:40;;;;;;;4.23;3.93;;;;;;;;;;5050724;28;20239;-65
2022/02/03 00:55:14;;;;;;;4.50;4.17;;;;;;;;;;5040809;28;20638;-65
2022/02/03 00:57:48;;;;;;;4.73;4.33;;;;;;;;;;5044703;28;20822;-65
2022/02/03 01:00:17;;;;;;;4.83;4.33;;;;;;;;;;5059429;28;20629;-65
2022/02/03 01:03:01;;;;;;;4.53;4.23;;;;;;;;;;5049630;28;20214;-65
2022/02/03 01:05:31;;;;;;;5.10;4.60;;;;;;;;;;5039892;28;20221;-65
2022/02/03 01:08:06;;;;;;;4.87;4.43;;;;;;;;;;5062132;28;20205;-65
2022/02/03 01:10:44;;;;;;;4.30;4.00;;;;;;;;;;5064341;28;20216;-65
2022/02/03 01:14:06;;;;;;;4.87;4.47;;;;;;;;;;5042780;28;20199;-65
2022/02/03 01:19:27;;;;;;;5.23;4.03;;;;;;;;;;5054733;28;20201;-65
2022/02/03 01:33:51;;;;;;;4.43;4.13;;;;;;;;;;5042695;28;20195;-65
2022/02/03 01:45:05;;;;;;;4.37;4.00;;;;;;;;;;5040966;28;20220;-65
2022/02/03 01:52:48;;;;;;;4.60;4.20;;;;;;;;;;5046021;28;20237;-65
2022/02/03 01:55:21;;;;;;;4.20;3.80;;;;;;;;;;5041984;28;20214;-65
2022/02/03 01:57:57;;;;;;;4.60;4.20;;;;;;;;;;5035701;28;20190;-65
2022/02/03 02:00:33;;;;;;;4.07;3.77;;;;;;;;;;5050062;28;20214;-65
2022/02/03 02:03:13;;;;;;;3.83;3.53;;;;;;;;;;5046330;28;20356;-65
2022/02/03 02:06:01;;;;;;;4.30;4.00;;;;;;;;;;5040200;28;20638;-65
2022/02/03 02:08:53;;;;;;;4.47;4.07;;;;;;;;;;5049940;28;20218;-65
2022/02/03 02:11:35;;;;;;;3.90;3.60;;;;;;;;;;5039646;28;20215;-65
2022/02/03 02:17:40;;;;;;;5.77;4.40;;;;;;;;;;5061001;28;20233;-65
2022/02/03 02:20:07;;;;;;;4.80;4.40;;;;;;;;;;5055445;28;20193;-65
2022/02/03 02:37:21;;;;;;;5.03;3.93;;;;;;;;;;5039901;28;20296;-65
2022/02/03 02:43:01;;;;;;;4.17;3.80;;;;;;;;;;5035987;28;20194;-65
2022/02/03 02:45:44;;;;;;;3.87;3.57;;;;;;;;;;5044777;28;20202;-65
2022/02/03 02:48:20;;;;;;;3.73;3.43;;;;;;;;;;5043899;28;20202;-65
2022/02/03 02:51:02;;;;;;;3.83;3.53;;;;;;;;;;5046495;28;20213;-65
2022/02/03 02:53:54;;;;;;;3.87;3.47;;;;;;;;;;5030616;28;20237;-65
2022/02/03 02:57:00;;;;;;;4.13;3.40;;;;;;;;;;5042845;28;20683;-65
2022/02/03 03:33:53;;;;;;;3.93;2.93;;;;;;;;;;5046354;28;20392;-65
2022/02/03 03:36:26;;;;;;;3.20;2.90;;;;;;;;;;5051296;28;20214;-65
2022/02/03 03:38:56;;;;;;;3.43;2.60;;;;;;;;;;5026639;28;20194;-65
2022/02/03 03:41:30;;;;;;;2.87;2.57;;;;;;;;;;5051024;28;20250;-65
2022/02/03 03:44:10;;;;;;;2.90;2.63;;;;;;;;;;5045324;28;20210;-65
2022/02/03 03:46:44;;;;;;;2.90;2.67;;;;;;;;;;5046739;28;20251;-65
2022/02/03 03:49:39;;;;;;;2.50;2.30;;;;;;;;;;5044323;28;20189;-65
2022/02/03 03:52:16;;;;;;;2.70;2.40;;;;;;;;;;5048475;28;20676;-65
2022/02/03 03:55:04;;;;;;;4.40;2.70;;;;;;;;;;5051481;28;20702;-65
2022/02/03 04:01:01;;;;;;;2.33;2.13;;;;;;;;;;5041875;28;20226;-65
2022/02/03 04:34:01;;;;;;;2.33;1.90;;;;;;;;;;5053356;28;20206;-65
2022/02/03 04:39:52;;;;;;;2.03;1.63;;;;;;;;;;5049058;28;20214;-65
2022/02/03 04:55:10;;;;;;;1.60;1.50;;;;;;;;;;5047957;28;20226;-65
2022/02/03 05:00:49;;;;;;;1.60;1.50;;;;;;;;;;5049594;28;20222;-65
2022/02/03 05:10:09;;;;;;;3.23;1.50;;;;;;;;;;5035520;28;20209;-65
2022/02/03 05:13:15;;;;;;;1.50;1.40;;;;;;;;;;5053119;28;20221;-64
2022/02/03 05:16:12;;;;;;;1.20;1.10;;;;;;;;;;5034377;28;20230;-65
2022/02/03 05:22:49;;;;;;;1.20;1.00;;;;;;;;;;5046909;28;20213;-65
2022/02/03 05:25:46;;;;;;;1.97;1.40;;;;;;;;;;5000535;28;20218;-65
2022/02/03 05:44:01;;;;;;;2.30;1.30;;;;;;;;;;5049766;28;20210;-65
2022/02/03 05:46:56;;;;;;;2.13;1.43;;;;;;;;;;5067647;28;20638;-65
2022/02/03 05:52:40;;;;;;;1.53;1.20;;;;;;;;;;5055632;28;20229;-65
2022/02/03 06:00:54;;;;;;;1.67;0.97;;;;;;;;;;5069059;28;20694;-64
2022/02/03 06:04:04;;;;;;;1.77;1.23;;;;;;;;;;5067437;28;20213;-65
2022/02/03 06:12:55;;;;;;;1.73;1.50;;;;;;;;;;5055893;28;20224;-65
2022/02/03 06:15:18;;;;;;;1.70;1.13;;;;;;;;;;5057619;28;20225;-64
2022/02/03 06:20:41;;;;;;;1.20;1.10;;;;;;;;;;5065630;28;20220;-65
2022/02/03 06:23:58;;;;;;;2.27;1.60;;;;;;;;;;5046697;28;20301;-65
2022/02/03 06:29:27;;;;;;;4.00;1.50;;;;;;;;;;5064339;28;20213;-65
2022/02/03 06:31:58;;;;;;;2.80;1.73;;;;;;;;;;5067980;28;20200;-65
2022/02/03 06:34:30;;;;;;;5.97;1.80;;;;;;;;;;5065340;28;20194;-65
2022/02/03 06:37:02;;;;;;;2.63;1.90;;;;;;;;;;5068290;28;20214;-65
2022/02/03 06:39:31;;;;;;;3.63;1.63;;;;;;;;;;5058334;28;20226;-65
2022/02/03 06:42:02;;;;;;;2.67;1.73;;;;;;;;;;5082445;28;20260;-65
2022/02/03 06:44:42;;;;;;;4.10;1.70;;;;;;;;;;5049914;28;20197;-65
2022/02/03 06:47:33;;;;;;;3.20;2.00;;;;;;;;;;5052318;28;20415;-65
2022/02/03 06:50:15;;;;;;;2.43;1.60;;;;;;;;;;5066345;28;20216;-65
2022/02/03 06:56:06;;;;;;;3.63;1.83;;;;;;;;;;5057709;28;20294;-65
2022/02/03 06:58:48;;;;;;;4.23;2.30;;;;;;;;;;5073758;28;20225;-65
2022/02/03 07:01:29;;;;;;;2.40;1.67;;;;;;;;;;5070196;28;20228;-65
2022/02/03 07:04:02;;;;;;;4.03;2.30;;;;;;;;;;5071280;28;20181;-65
2022/02/03 07:06:39;;;;;;;1.93;1.70;;;;;;;;;;5078313;28;20213;-64
2022/02/03 07:09:20;;;;;;;2.40;1.67;;;;;;;;;;5066516;28;20298;-64
2022/02/03 07:11:50;;;;;;;2.37;1.90;;;;;;;;;;5068613;28;20513;-62
2022/02/03 07:14:24;;;;;;;3.27;2.10;;;;;;;;;;5067411;28;20225;-62
2022/02/03 07:16:56;;;;;;;3.43;1.83;;;;;;;;;;5077656;28;20224;-64
2022/02/03 07:19:34;;;;;;;2.73;1.90;;;;;;;;;;5066693;28;20648;-64
2022/02/03 07:22:05;;;;;;;1.93;1.77;;;;;;;;;;5084477;28;20579;-62
2022/02/03 07:24:36;;;;;;;16.17;4.60;;;;;;;;;;5044236;28;20202;-64
2022/02/03 07:27:09;;;;;;;23.03;6.50;;;;;;;;;;5077887;28;20271;-68
2022/02/03 07:29:38;;;;;;;26.23;7.17;;;;;;;;;;5072120;28;20216;-68
2022/02/03 07:32:08;;;;;;;18.17;5.50;;;;;;;;;;5061070;28;20194;-61
2022/02/03 07:34:42;;;;;;;18.37;5.40;;;;;;;;;;5068278;28;20217;-62
2022/02/03 07:37:12;;;;;;;19.60;4.97;;;;;;;;;;5069887;28;20226;-61
2022/02/03 07:39:40;;;;;;;14.80;4.80;;;;;;;;;;5062632;28;20229;-62
2022/02/03 07:42:13;;;;;;;13.83;4.83;;;;;;;;;;5078657;28;20280;-62
2022/02/03 07:44:43;;;;;;;9.30;4.13;;;;;;;;;;5067016;28;20205;-62
2022/02/03 07:47:15;;;;;;;14.73;4.23;;;;;;;;;;5075034;28;20221;-62
2022/02/03 07:49:46;;;;;;;15.50;4.43;;;;;;;;;;5072310;28;20262;-62
2022/02/03 07:52:15;;;;;;;8.43;3.63;;;;;;;;;;5072003;28;20216;-61
2022/02/03 07:54:44;;;;;;;9.20;4.13;;;;;;;;;;5067663;28;20676;-62
2022/02/03 07:57:14;;;;;;;8.87;3.70;;;;;;;;;;5076144;28;20701;-62
2022/02/03 07:59:48;;;;;;;10.43;3.93;;;;;;;;;;5071079;28;20242;-62
2022/02/03 08:02:19;;;;;;;7.80;3.10;;;;;;;;;;5087847;28;20277;-62
2022/02/03 08:04:51;;;;;;;7.43;3.30;;;;;;;;;;5047391;28;20224;-62
2022/02/03 08:07:26;;;;;;;9.50;3.50;;;;;;;;;;5093007;28;20642;-62
2022/02/03 08:10:01;;;;;;;7.90;3.17;;;;;;;;;;5082994;28;20218;-66
2022/02/03 08:12:40;;;;;;;14.47;2.60;;;;;;;;;;5098735;28;20565;-63
2022/02/03 08:15:34;;;;;;;7.20;3.17;;;;;;;;;;5088805;28;20544;-63
2022/02/03 08:18:32;;;;;;;4.90;2.73;;;;;;;;;;5084291;28;20617;-63
2022/02/03 08:21:06;;;;;;;9.67;2.90;;;;;;;;;;5100852;28;20223;-65
2022/02/03 08:23:59;;;;;;;4.90;2.57;;;;;;;;;;5070932;28;20615;-63
2022/02/03 08:26:47;;;;;;;4.43;2.40;;;;;;;;;;5089081;28;20635;-63
2022/02/03 08:32:02;;;;;;;6.10;2.23;;;;;;;;;;5100745;28;20523;-63
2022/02/03 08:37:30;;;;;;;3.07;2.33;;;;;;;;;;5088295;28;20205;-64
2022/02/03 08:40:12;;;;;;;3.50;1.87;;;;;;;;;;5087147;28;20205;-65
2022/02/03 08:42:43;;;;;;;7.30;2.40;;;;;;;;;;5088018;28;20639;-65
2022/02/03 08:45:20;;;;;;;3.70;1.70;;;;;;;;;;5071992;28;20208;-67
2022/02/03 08:47:52;;;;;;;5.83;2.00;;;;;;;;;;5091253;28;20533;-67
2022/02/03 08:50:36;;;;;;;3.17;1.93;;;;;;;;;;5090751;28;20223;-67
2022/02/03 08:53:18;;;;;;;3.00;1.80;;;;;;;;;;5090981;28;20283;-69
2022/02/03 09:53:00;;;;;;;2.33;1.40;;;;;;;;;;5076616;28;20303;-65
2022/02/03 09:58:22;;;;;;;1.93;1.30;;;;;;;;;;5099264;27;20547;-68
2022/02/03 10:01:05;;;;;;;1.93;1.67;;;;;;;;;;5096189;28;20208;-69
2022/02/03 10:04:03;;;;;;;2.17;1.47;;;;;;;;;;5095216;27;20213;-69
2022/02/03 10:06:56;;;;;;;6.90;1.37;;;;;;;;;;5074933;28;20240;-68
2022/02/03 10:09:41;;;;;;;2.97;1.63;;;;;;;;;;5094851;27;20207;-68
2022/02/03 10:12:09;;;;;;;2.73;1.53;;;;;;;;;;5100488;28;20288;-69
2022/02/03 10:14:43;;;;;;;3.03;1.60;;;;;;;;;;5102362;27;20233;-69
2022/02/03 10:17:35;;;;;;;2.03;1.63;;;;;;;;;;5101383;28;21950;-69
2022/02/03 10:20:08;;;;;;;1.40;1.30;;;;;;;;;;5085480;28;20195;-68
2022/02/03 10:22:57;;;;;;;3.40;1.63;;;;;;;;;;5103591;28;20266;-66
2022/02/03 10:25:33;;;;;;;2.50;1.37;;;;;;;;;;5084229;27;20708;-68
2022/02/03 10:28:10;;;;;;;3.87;1.70;;;;;;;;;;5094291;28;20208;-68
2022/02/03 10:30:56;;;;;;;2.70;1.63;;;;;;;;;;5085202;28;20558;-69
2022/02/03 10:33:39;;;;;;;2.40;1.53;;;;;;;;;;5100177;28;20197;-71
2022/02/03 10:37:45;;;;;;;1.80;1.37;;;;;;;;;;5077011;28;20209;-70
2022/02/03 10:40:19;;;;;;;2.47;1.63;;;;;;;;;;5071654;28;20293;-71
2022/02/03 10:43:25;;;;;;;1.40;1.20;;;;;;;;;;5092448;28;20208;-69
2022/02/03 10:55:25;;;;;;;1.70;1.40;;;;;;;;;;5095073;28;20205;-66
2022/02/03 11:11:50;;;;;;;2.33;1.60;;;;;;;;;;5087958;28;20203;-66
2022/02/03 11:14:22;;;;;;;3.70;1.30;;;;;;;;;;5087549;28;20536;-66
2022/02/03 11:16:55;;;;;;;3.10;1.37;;;;;;;;;;5069995;28;20248;-68
2022/02/03 11:19:32;;;;;;;2.17;1.00;;;;;;;;;;5074104;28;20200;-68
2022/02/03 11:22:09;;;;;;;2.00;1.20;;;;;;;;;;5075240;28;20189;-66
2022/02/03 11:24:50;;;;;;;2.00;1.47;;;;;;;;;;5099048;28;20200;-66
2022/02/03 11:27:47;;;;;;;2.13;1.40;;;;;;;;;;5081988;28;20257;-65
2022/02/03 11:30:58;;;;;;;1.40;1.30;;;;;;;;;;5053805;28;20274;-66
2022/02/03 11:39:28;;;;;;;1.70;1.27;;;;;;;;;;5089328;28;20189;-66
2022/02/03 11:42:19;;;;;;;2.07;1.20;;;;;;;;;;5085714;28;20209;-65
2022/02/03 11:48:11;;;;;;;1.87;1.27;;;;;;;;;;5067374;28;20213;-66
2022/02/03 12:03:27;;;;;;;3.53;1.30;;;;;;;;;;5068023;28;20241;-65
2022/02/03 12:20:55;;;;;;;1.97;1.20;;;;;;;;;;5058898;28;20210;-68
2022/02/03 12:24:03;;;;;;;3.83;1.30;;;;;;;;;;5049555;28;20217;-69
2022/02/03 12:26:46;;;;;;;3.43;1.20;;;;;;;;;;5069907;28;20213;-71
2022/02/03 12:29:28;;;;;;;2.03;1.10;;;;;;;;;;5079434;28;20209;-70
2022/02/03 12:32:19;;;;;;;4.50;1.43;;;;;;;;;;5085061;28;20220;-69
2022/02/03 12:38:20;;;;;;;2.07;1.13;;;;;;;;;;5089313;28;20240;-70
2022/02/03 12:41:21;;;;;;;2.13;1.20;;;;;;;;;;5085657;28;20274;-68
2022/02/03 12:44:04;;;;;;;1.10;1.03;;;;;;;;;;5078663;28;20681;-67
2022/02/03 12:46:32;;;;;;;1.43;1.00;;;;;;;;;;5046781;28;20213;-67
2022/02/03 12:49:02;;;;;;;2.23;1.27;;;;;;;;;;5083250;28;20270;-68
2022/02/03 12:51:32;;;;;;;2.73;1.30;;;;;;;;;;5082013;28;20205;-64
2022/02/03 12:54:13;;;;;;;2.20;1.40;;;;;;;;;;5075240;28;20225;-65
2022/02/03 12:56:43;;;;;;;1.80;1.10;;;;;;;;;;5086524;28;20217;-64
2022/02/03 12:59:16;;;;;;;3.93;1.20;;;;;;;;;;5081134;28;20215;-64
2022/02/03 13:01:49;;;;;;;1.77;1.30;;;;;;;;;;5071746;28;20815;-66
2022/02/03 13:04:22;;;;;;;2.97;1.30;;;;;;;;;;5101231;28;20196;-66
2022/02/03 13:07:02;;;;;;;2.40;1.30;;;;;;;;;;5084083;28;20270;-69
2022/02/03 13:09:51;;;;;;;2.20;1.30;;;;;;;;;;5094271;28;20212;-68
2022/02/03 13:12:32;;;;;;;1.93;1.20;;;;;;;;;;5086788;28;20614;-68
2022/02/03 13:15:07;;;;;;;2.97;1.47;;;;;;;;;;5090992;28;20220;-66
2022/02/03 13:17:40;;;;;;;3.23;1.47;;;;;;;;;;5086436;28;20397;-67
2022/02/03 13:20:20;;;;;;;4.20;1.47;;;;;;;;;;5094563;28;20201;-65
2022/02/03 13:22:56;;;;;;;3.73;1.60;;;;;;;;;;5086644;28;20197;-66
2022/02/03 13:26:04;;;;;;;1.83;1.23;;;;;;;;;;5081174;28;20197;-66
2022/02/03 13:29:05;;;;;;;1.97;1.20;;;;;;;;;;5087069;28;20219;-67
2022/02/03 13:31:51;;;;;;;1.67;1.43;;;;;;;;;;5071428;28;20213;-67
2022/02/03 13:34:34;;;;;;;2.83;1.03;;;;;;;;;;5071315;28;20189;-66
2022/02/03 13:37:18;;;;;;;2.90;1.47;;;;;;;;;;5087592;28;20224;-68
2022/02/03 13:40:11;;;;;;;4.07;1.40;;;;;;;;;;5092265;28;20283;-67
2022/02/03 13:42:49;;;;;;;3.80;1.30;;;;;;;;;;5083395;28;20216;-68
2022/02/03 13:45:23;;;;;;;1.87;1.33;;;;;;;;;;5075116;28;20196;-66
2022/02/03 13:47:55;;;;;;;1.90;1.20;;;;;;;;;;5087414;28;20209;-67
2022/02/03 13:50:30;;;;;;;2.07;1.27;;;;;;;;;;5081921;28;20192;-67
2022/02/03 13:53:14;;;;;;;2.80;1.00;;;;;;;;;;5085810;28;20274;-67
2022/02/03 14:22:09;;;;;;;2.07;1.23;;;;;;;;;;5062869;28;20227;-67
2022/02/03 14:27:57;;;;;;;1.73;1.33;;;;;;;;;;5085760;28;20189;-66
2022/02/03 14:30:32;;;;;;;1.97;1.27;;;;;;;;;;5083960;28;20231;-66
2022/02/03 14:33:04;;;;;;;3.03;1.70;;;;;;;;;;5086356;28;20181;-67
2022/02/03 14:35:35;;;;;;;2.83;1.53;;;;;;;;;;5088096;28;20214;-66
2022/02/03 14:38:21;;;;;;;2.13;1.40;;;;;;;;;;5087515;28;20209;-66
2022/02/03 14:41:50;;;;;;;1.10;1.00;;;;;;;;;;5085317;28;20197;-69
2022/02/03 14:43:49;;;;;;;3.33;1.13;;;;;;;;;;5089317;28;20216;-67
2022/02/03 14:46:31;;;;;;;3.97;1.40;;;;;;;;;;5082256;28;20205;-67
2022/02/03 14:49:03;;;;;;;2.40;1.50;;;;;;;;;;5078754;28;20229;-66
2022/02/03 14:51:48;;;;;;;2.20;1.40;;;;;;;;;;5079027;28;20209;-66
2022/02/03 14:59:44;;;;;;;1.60;1.20;;;;;;;;;;5083481;28;20204;-67
2022/02/03 15:02:15;;;;;;;2.03;1.20;;;;;;;;;;5085060;28;20196;-67
2022/02/03 15:04:53;;;;;;;3.73;1.30;;;;;;;;;;5084198;28;20228;-66
2022/02/03 15:07:43;;;;;;;1.93;1.30;;;;;;;;;;5085432;28;20285;-65
2022/02/03 15:10:29;;;;;;;1.33;1.10;;;;;;;;;;5083250;28;20209;-66
2022/02/03 15:13:08;;;;;;;3.33;1.70;;;;;;;;;;5081853;28;20201;-64
2022/02/03 15:15:38;;;;;;;2.33;1.47;;;;;;;;;;5084717;28;20212;-65
2022/02/03 15:18:08;;;;;;;2.93;1.30;;;;;;;;;;5066887;28;20255;-65
2022/02/03 15:20:39;;;;;;;3.20;1.10;;;;;;;;;;5087931;28;21482;-66
2022/02/03 15:23:08;;;;;;;4.90;1.30;;;;;;;;;;5077185;28;20197;-64
2022/02/03 15:25:38;;;;;;;1.73;1.40;;;;;;;;;;5078483;28;20587;-65
2022/02/03 15:28:07;;;;;;;3.90;1.93;;;;;;;;;;5084376;28;20236;-66
2022/02/03 15:30:39;;;;;;;1.83;1.27;;;;;;;;;;5083928;28;20808;-65
2022/02/03 15:33:12;;;;;;;1.50;1.10;;;;;;;;;;5081983;28;20197;-65
2022/02/03 15:35:48;;;;;;;2.10;1.00;;;;;;;;;;5087171;28;20232;-66
2022/02/03 15:38:22;;;;;;;2.17;1.30;;;;;;;;;;5084021;28;20215;-66
2022/02/03 15:40:54;;;;;;;1.63;1.20;;;;;;;;;;5086591;28;20201;-66
2022/02/03 15:43:41;;;;;;;3.17;1.00;;;;;;;;;;5083571;28;20246;-67
2022/02/03 15:46:16;;;;;;;2.00;1.10;;;;;;;;;;5084531;28;20632;-66
2022/02/03 15:49:19;;;;;;;2.27;1.30;;;;;;;;;;5083961;28;20204;-66
2022/02/03 15:58:29;;;;;;;1.43;1.20;;;;;;;;;;5062295;28;20266;-65
2022/02/03 16:03:17;;;;;;;1.73;1.23;;;;;;;;;;5081468;28;20196;-69
2022/02/03 16:15:21;;;;;;;1.70;1.53;;;;;;;;;;5084347;28;20209;-67
2022/02/03 16:17:23;;;;;;;1.40;1.10;;;;;;;;;;5068561;28;20189;-67
2022/02/03 16:20:15;;;;;;;2.00;1.13;;;;;;;;;;5084109;28;20270;-66
2022/02/03 16:23:29;;;;;;;2.80;1.50;;;;;;;;;;5078279;28;20220;-68
2022/02/03 16:40:51;;;;;;;1.93;1.33;;;;;;;;;;5104179;28;20208;-67
2022/02/03 16:50:23;;;;;;;1.60;1.40;;;;;;;;;;5081345;28;20238;-68
2022/02/03 16:52:35;;;;;;;2.83;1.90;;;;;;;;;;5109030;28;20209;-69
2022/02/03 16:55:12;;;;;;;2.93;1.77;;;;;;;;;;5093541;28;20281;-69
2022/02/03 16:57:44;;;;;;;2.80;1.80;;;;;;;;;;5073277;28;20204;-69
2022/02/03 17:00:18;;;;;;;1.50;1.40;;;;;;;;;;5082538;28;20198;-69
2022/02/03 17:03:06;;;;;;;2.70;1.90;;;;;;;;;;5075704;28;20238;-69
2022/02/03 17:05:38;;;;;;;4.23;1.57;;;;;;;;;;5079104;28;20221;-69
2022/02/03 17:08:08;;;;;;;3.83;1.90;;;;;;;;;;5073816;28;20208;-69
2022/02/03 17:10:43;;;;;;;2.87;2.00;;;;;;;;;;5087876;28;20200;-69
2022/02/03 17:13:16;;;;;;;6.07;2.07;;;;;;;;;;5085371;28;20219;-69
2022/02/03 17:15:47;;;;;;;2.83;1.97;;;;;;;;;;5091155;28;20208;-69
2022/02/03 17:18:17;;;;;;;5.50;2.10;;;;;;;;;;5069659;28;20606;-69
2022/02/03 17:20:49;;;;;;;5.80;2.10;;;;;;;;;;5086612;28;20278;-70
2022/02/03 17:23:21;;;;;;;5.63;2.37;;;;;;;;;;5083995;28;20220;-69
2022/02/03 17:26:18;;;;;;;4.23;2.20;;;;;;;;;;5081748;28;20705;-69
2022/02/03 17:28:57;;;;;;;4.63;2.30;;;;;;;;;;5081229;28;20197;-69
2022/02/03 17:54:45;;;;;;;3.77;2.60;;;;;;;;;;5082964;28;20232;-70
2022/02/03 18:30:29;;;;;;;3.13;2.17;;;;;;;;;;5068707;28;20204;-68
2022/02/03 18:53:04;;;;;;;3.63;2.43;;;;;;;;;;5031179;28;20214;-70
2022/02/03 19:21:39;;;;;;;3.13;2.40;;;;;;;;;;5059791;28;20284;-67
2022/02/03 19:27:03;;;;;;;3.03;2.60;;;;;;;;;;5080254;28;20930;-66
2022/02/03 20:06:01;;;;;;;2.87;2.33;;;;;;;;;;5080549;28;20216;-66
2022/02/03 20:08:45;;;;;;;2.83;2.53;;;;;;;;;;5082250;28;20204;-66
2022/02/03 20:11:17;;;;;;;3.23;2.93;;;;;;;;;;5080311;28;20239;-66
2022/02/03 20:13:50;;;;;;;2.57;2.37;;;;;;;;;;5084435;28;20201;-66
2022/02/03 20:16:22;;;;;;;2.87;2.40;;;;;;;;;;5078122;28;20622;-66
2022/02/03 20:18:53;;;;;;;2.60;2.40;;;;;;;;;;5080778;28;20254;-67
2022/02/03 20:21:29;;;;;;;2.93;2.43;;;;;;;;;;5081896;28;20201;-66
2022/02/03 20:24:08;;;;;;;2.67;2.47;;;;;;;;;;5087044;28;20658;-66
2022/02/03 20:26:42;;;;;;;3.57;2.70;;;;;;;;;;5048980;28;20435;-66
2022/02/03 20:29:12;;;;;;;3.07;2.40;;;;;;;;;;5073967;28;20212;-67
2022/02/03 20:31:44;;;;;;;4.27;2.67;;;;;;;;;;5080235;28;20310;-66
2022/02/03 20:34:15;;;;;;;3.50;2.67;;;;;;;;;;5077491;28;20821;-66
2022/02/03 20:36:46;;;;;;;2.60;2.40;;;;;;;;;;5077408;28;20208;-66
2022/02/03 20:39:16;;;;;;;3.33;2.77;;;;;;;;;;5076318;28;20648;-66
2022/02/03 20:41:48;;;;;;;2.93;2.63;;;;;;;;;;5076823;28;20639;-67
2022/02/03 20:44:19;;;;;;;3.20;2.90;;;;;;;;;;5084120;28;20197;-66
2022/02/03 20:46:48;;;;;;;3.23;2.90;;;;;;;;;;5081906;28;20318;-66
2022/02/03 20:49:34;;;;;;;3.17;2.70;;;;;;;;;;5078761;28;20298;-66
2022/02/03 20:52:06;;;;;;;3.17;2.70;;;;;;;;;;5082786;28;20208;-67
2022/02/03 20:54:35;;;;;;;3.03;2.60;;;;;;;;;;5079105;28;20245;-67
2022/02/03 20:57:11;;;;;;;3.27;2.60;;;;;;;;;;5062276;28;20193;-67
2022/02/03 21:00:03;;;;;;;3.30;2.73;;;;;;;;;;5077041;28;20281;-67
2022/02/03 21:05:24;;;;;;;2.97;2.67;;;;;;;;;;5080250;28;20201;-66
2022/02/03 21:07:56;;;;;;;3.20;2.50;;;;;;;;;;5066405;28;20193;-66
2022/02/03 21:10:32;;;;;;;3.37;3.07;;;;;;;;;;5078359;28;20201;-66
2022/02/03 21:13:03;;;;;;;3.03;2.70;;;;;;;;;;5071971;28;20930;-66
2022/02/03 21:15:37;;;;;;;3.10;2.80;;;;;;;;;;5079544;28;20304;-66
2022/02/03 21:18:14;;;;;;;2.93;2.60;;;;;;;;;;5075388;28;20601;-67
2022/02/03 21:20:50;;;;;;;2.67;2.40;;;;;;;;;;5085121;28;20235;-67
2022/02/03 21:23:21;;;;;;;3.17;2.83;;;;;;;;;;5067718;28;20198;-67
2022/02/03 21:25:56;;;;;;;3.40;2.73;;;;;;;;;;5081242;28;20193;-67
2022/02/03 21:28:30;;;;;;;3.13;2.47;;;;;;;;;;5078393;28;20208;-66
2022/02/03 21:31:00;;;;;;;3.00;2.70;;;;;;;;;;5074877;28;20280;-66
2022/02/03 21:33:45;;;;;;;3.10;2.67;;;;;;;;;;5083195;28;20217;-67
2022/02/03 21:36:19;;;;;;;3.27;2.97;;;;;;;;;;5082118;28;20185;-67
2022/02/03 21:38:53;;;;;;;2.97;2.67;;;;;;;;;;5087165;28;20575;-67
2022/02/03 21:41:21;;;;;;;3.03;2.80;;;;;;;;;;5082653;28;20189;-66
2022/02/03 21:43:53;;;;;;;2.80;2.47;;;;;;;;;;5086072;28;20209;-66
2022/02/03 21:46:23;;;;;;;3.73;3.40;;;;;;;;;;5075544;28;20201;-67
2022/02/03 21:48:52;;;;;;;3.57;3.10;;;;;;;;;;5077688;28;20630;-66
2022/02/03 21:51:26;;;;;;;4.50;3.10;;;;;;;;;;5082696;28;20193;-67
2022/02/03 21:54:02;;;;;;;3.00;2.67;;;;;;;;;;5080332;28;20252;-67
2022/02/03 21:56:34;;;;;;;3.20;2.90;;;;;;;;;;5086673;28;20193;-68
2022/02/03 21:59:08;;;;;;;3.47;3.17;;;;;;;;;;5082752;28;20220;-66
2022/02/03 22:01:41;;;;;;;4.17;2.80;;;;;;;;;;5065255;28;20226;-67
2022/02/03 22:04:13;;;;;;;3.27;2.97;;;;;;;;;;5084259;28;20610;-66
2022/02/03 22:06:42;;;;;;;2.90;2.67;;;;;;;;;;5085449;28;20666;-66
2022/02/03 22:09:25;;;;;;;3.00;2.67;;;;;;;;;;5083897;28;20286;-66
2022/02/03 22:11:56;;;;;;;2.97;2.67;;;;;;;;;;5075214;28;20478;-66
2022/02/03 22:14:30;;;;;;;3.93;2.60;;;;;;;;;;5082947;28;20325;-66
2022/02/03 22:17:01;;;;;;;2.53;2.30;;;;;;;;;;5084996;28;20253;-67
2022/02/03 22:19:57;;;;;;;2.57;2.30;;;;;;;;;;5062083;28;20225;-66
2022/02/03 22:25:21;;;;;;;2.40;2.20;;;;;;;;;;5069224;28;20267;-66
2022/02/03 22:39:05;;;;;;;3.73;2.30;;;;;;;;;;5079164;28;20692;-67
2022/02/03 22:44:42;;;;;;;2.50;2.30;;;;;;;;;;5084094;28;20221;-66
2022/02/03 22:47:23;;;;;;;2.87;2.10;;;;;;;;;;5082755;28;20283;-66
2022/02/03 22:49:56;;;;;;;3.00;2.27;;;;;;;;;;5070733;28;20204;-66
2022/02/03 22:52:32;;;;;;;3.43;2.63;;;;;;;;;;5084201;28;20198;-67
2022/02/03 22:55:05;;;;;;;2.30;2.10;;;;;;;;;;5088960;28;20220;-67
2022/02/03 22:57:36;;;;;;;2.73;2.20;;;;;;;;;;5072114;28;20282;-67
2022/02/03 23:00:16;;;;;;;3.00;2.20;;;;;;;;;;5070087;28;20217;-66
2022/02/03 23:02:50;;;;;;;2.30;2.10;;;;;;;;;;5084112;28;20662;-67
2022/02/03 23:05:21;;;;;;;2.40;2.10;;;;;;;;;;5080051;28;20696;-67
2022/02/03 23:08:14;;;;;;;2.23;2.00;;;;;;;;;;5085100;28;20198;-66
2022/02/03 23:11:04;;;;;;;2.30;2.10;;;;;;;;;;5084995;28;20196;-66
2022/02/03 23:16:33;;;;;;;2.53;2.27;;;;;;;;;;5071587;28;20212;-66
2022/02/03 23:22:11;;;;;;;2.30;2.10;;;;;;;;;;5086385;28;20200;-66
2022/02/03 23:24:41;;;;;;;2.33;2.13;;;;;;;;;;5087104;28;20627;-66
2022/02/03 23:30:04;;;;;;;2.73;2.53;;;;;;;;;;5084358;28;20228;-66
2022/02/03 23:32:35;;;;;;;2.20;2.00;;;;;;;;;;5059781;28;20190;-67
2022/02/03 23:35:16;;;;;;;2.60;2.33;;;;;;;;;;5082981;28;20208;-66
2022/02/03 23:37:54;;;;;;;8.27;2.20;;;;;;;;;;5076732;28;20542;-66
2022/02/03 23:41:07;;;;;;;8.93;2.30;;;;;;;;;;5085974;28;20231;-66
